Time;durP1;ratioP1;P1;durP2;ratioP2;P2;SDS_P1;SDS_P2;PMS_P1;PMS_P2;Temp;Humidity;BMP_temperature;BMP_pressure;BME280_temperature;BME280_humidity;BME280_pressure;Samples;Min_cycle;Max_cycle;Signal;HPM_P1;HPM_P2
2023/11/09 00:00:21;;;;;;;3.30;1.00;;;9.10;99.90;;;;;;4983423;28;20077;-78
2023/11/09 00:02:46;;;;;;;6.38;1.35;;;9.00;99.90;;;;;;4981977;28;20034;-78
2023/11/09 00:05:12;;;;;;;2.53;1.10;;;9.10;99.90;;;;;;4982422;28;20574;-78
2023/11/09 00:07:38;;;;;;;1.50;1.10;;;9.10;99.90;;;;;;5013564;28;20038;-78
2023/11/09 00:10:06;;;;;;;2.72;1.08;;;9.10;99.90;;;;;;4986584;28;20049;-79
2023/11/09 00:12:32;;;;;;;2.20;0.88;;;9.10;99.90;;;;;;4980535;28;20411;-78
2023/11/09 00:14:58;;;;;;;2.45;0.95;;;9.10;99.90;;;;;;5002632;28;20494;-78
2023/11/09 00:17:24;;;;;;;3.47;1.15;;;9.10;99.90;;;;;;4970733;28;20107;-78
2023/11/09 00:19:50;;;;;;;2.95;1.02;;;9.10;99.90;;;;;;4988764;28;20116;-78
2023/11/09 00:22:16;;;;;;;3.03;1.23;;;9.00;99.90;;;;;;4987402;28;20030;-80
2023/11/09 00:24:41;;;;;;;2.03;1.13;;;9.00;99.90;;;;;;5002724;28;20503;-79
2023/11/09 00:27:07;;;;;;;1.77;1.10;;;9.00;99.90;;;;;;4984896;28;20198;-79
2023/11/09 00:29:34;;;;;;;2.95;1.10;;;9.00;99.90;;;;;;4970818;28;20058;-79
2023/11/09 00:32:00;;;;;;;2.63;1.55;;;9.10;99.90;;;;;;4985925;28;20046;-79
2023/11/09 00:34:26;;;;;;;4.22;0.85;;;9.00;99.90;;;;;;4984652;28;20031;-78
2023/11/09 00:36:51;;;;;;;2.78;1.17;;;9.10;99.90;;;;;;4985600;28;20027;-78
2023/11/09 00:39:20;;;;;;;1.75;1.02;;;9.10;99.90;;;;;;4985664;28;20064;-78
2023/11/09 00:41:45;;;;;;;3.00;1.33;;;9.10;99.90;;;;;;4970921;28;20042;-79
2023/11/09 00:44:11;;;;;;;1.75;1.10;;;9.10;99.90;;;;;;5000906;28;20057;-78
2023/11/09 00:46:37;;;;;;;6.63;0.98;;;9.10;99.90;;;;;;4988559;28;20133;-78
2023/11/09 00:49:03;;;;;;;3.17;0.70;;;9.10;99.90;;;;;;5000489;28;20570;-78
2023/11/09 00:51:30;;;;;;;1.30;0.90;;;9.10;99.90;;;;;;4985728;28;20041;-77
2023/11/09 00:53:56;;;;;;;2.33;0.90;;;9.10;99.90;;;;;;4982952;28;20104;-79
2023/11/09 00:56:21;;;;;;;2.67;1.00;;;9.10;99.90;;;;;;4986576;28;20125;-78
2023/11/09 00:58:47;;;;;;;1.83;0.90;;;9.10;99.90;;;;;;4970579;28;20515;-78
2023/11/09 01:01:12;;;;;;;3.03;1.15;;;9.20;99.90;;;;;;4969576;28;20490;-78
2023/11/09 01:03:38;;;;;;;2.00;0.65;;;9.10;99.90;;;;;;4999098;28;20027;-77
2023/11/09 01:06:07;;;;;;;4.72;0.85;;;9.10;99.90;;;;;;4983054;28;20648;-78
2023/11/09 01:08:33;;;;;;;0.98;0.80;;;9.10;99.90;;;;;;4998316;28;20092;-79
2023/11/09 01:11:01;;;;;;;2.50;1.00;;;9.10;99.90;;;;;;4994840;28;20034;-77
2023/11/09 01:13:27;;;;;;;1.05;0.82;;;9.10;99.90;;;;;;4982730;28;20154;-78
2023/11/09 01:15:52;;;;;;;1.95;1.00;;;9.10;99.90;;;;;;4967910;28;20121;-78
2023/11/09 01:18:18;;;;;;;2.80;1.17;;;9.10;99.90;;;;;;4968368;28;20026;-78
2023/11/09 01:20:43;;;;;;;1.45;0.90;;;9.10;99.90;;;;;;5013504;28;20054;-78
2023/11/09 01:23:11;;;;;;;2.20;1.10;;;9.10;99.90;;;;;;4998100;28;20042;-78
2023/11/09 01:25:38;;;;;;;1.65;1.08;;;9.10;99.90;;;;;;4984990;28;20485;-78
2023/11/09 01:28:03;;;;;;;0.32;0.22;;;9.10;99.90;;;;;;4989456;28;20432;-78
2023/11/09 01:30:29;;;;;;;2.83;1.08;;;9.10;99.90;;;;;;4967556;28;20117;-78
2023/11/09 01:32:57;;;;;;;4.25;0.82;;;9.20;99.90;;;;;;4968990;28;20060;-78
2023/11/09 01:35:23;;;;;;;1.65;1.05;;;9.10;99.90;;;;;;4968133;28;20483;-79
2023/11/09 01:37:49;;;;;;;2.67;0.70;;;9.10;99.90;;;;;;4968085;28;20061;-78
2023/11/09 01:40:14;;;;;;;2.55;0.90;;;9.10;99.90;;;;;;4991935;28;20411;-78
2023/11/09 01:42:43;;;;;;;2.90;0.90;;;9.10;99.90;;;;;;4983880;28;20058;-78
2023/11/09 01:45:09;;;;;;;1.80;1.02;;;9.10;99.90;;;;;;4993941;28;20499;-77
2023/11/09 01:47:35;;;;;;;0.73;0.73;;;9.10;99.90;;;;;;4989678;28;20027;-79
2023/11/09 01:50:01;;;;;;;3.03;0.88;;;9.10;99.90;;;;;;4997211;28;20589;-78
2023/11/09 01:52:27;;;;;;;2.08;0.85;;;9.10;99.90;;;;;;4983904;28;20518;-78
2023/11/09 01:54:53;;;;;;;2.20;0.80;;;9.10;99.90;;;;;;4984318;28;20062;-79
2023/11/09 01:57:18;;;;;;;3.22;0.88;;;9.10;99.90;;;;;;4968359;28;20030;-79
2023/11/09 01:59:44;;;;;;;1.42;0.90;;;9.20;99.90;;;;;;4984539;28;20046;-78
2023/11/09 02:02:10;;;;;;;2.05;0.95;;;9.10;99.90;;;;;;4764518;28;6372291;-78
2023/11/09 02:04:36;;;;;;;1.80;0.80;;;9.10;99.90;;;;;;4968263;28;20558;-78
2023/11/09 02:07:01;;;;;;;1.85;0.80;;;9.10;99.90;;;;;;4984734;28;20114;-79
2023/11/09 02:09:27;;;;;;;0.85;0.65;;;9.10;99.90;;;;;;4983467;28;20509;-78
2023/11/09 02:11:53;;;;;;;1.38;0.73;;;9.00;99.90;;;;;;4967050;28;20042;-79
2023/11/09 02:14:19;;;;;;;1.20;1.08;;;9.10;99.90;;;;;;4984830;28;20041;-78
2023/11/09 02:16:46;;;;;;;2.10;1.10;;;9.20;99.90;;;;;;4987977;28;20205;-78
2023/11/09 02:19:12;;;;;;;1.88;0.90;;;9.20;99.90;;;;;;4981713;28;20030;-79
2023/11/09 02:21:37;;;;;;;2.50;1.05;;;9.20;99.90;;;;;;4996513;28;20465;-78
2023/11/09 02:24:10;;;;;;;1.83;1.23;;;9.10;99.90;;;;;;5002537;28;20113;-78
2023/11/09 02:26:36;;;;;;;1.52;0.50;;;9.10;99.90;;;;;;4952038;28;20110;-78
2023/11/09 02:29:01;;;;;;;1.10;0.60;;;9.10;99.90;;;;;;4951820;28;20082;-78
2023/11/09 02:31:27;;;;;;;1.42;0.75;;;9.10;99.90;;;;;;4982821;28;20030;-78
2023/11/09 02:33:52;;;;;;;4.30;0.75;;;9.10;99.90;;;;;;4967855;28;20045;-80
2023/11/09 02:36:19;;;;;;;1.25;0.85;;;9.10;99.90;;;;;;4983434;28;20030;-79
2023/11/09 02:38:45;;;;;;;2.80;0.90;;;9.20;99.90;;;;;;4985044;28;20443;-78
2023/11/09 02:41:11;;;;;;;2.58;0.75;;;9.20;99.90;;;;;;4997492;28;20493;-79
2023/11/09 02:43:40;;;;;;;2.33;0.73;;;9.20;99.90;;;;;;4999440;28;20034;-79
2023/11/09 02:46:06;;;;;;;1.95;0.70;;;9.20;99.90;;;;;;4984004;28;20038;-78
2023/11/09 02:48:31;;;;;;;0.75;0.47;;;9.20;99.90;;;;;;4984966;28;20612;-79
2023/11/09 02:50:57;;;;;;;3.05;1.00;;;9.20;99.90;;;;;;4968438;28;20061;-80
2023/11/09 02:53:23;;;;;;;3.30;0.57;;;9.20;99.90;;;;;;4981747;28;20035;-80
2023/11/09 02:55:48;;;;;;;2.22;0.90;;;9.20;99.90;;;;;;4997019;28;20033;-78
2023/11/09 02:58:14;;;;;;;2.40;0.90;;;9.20;99.90;;;;;;4996365;28;20502;-79
2023/11/09 03:00:39;;;;;;;1.45;0.63;;;9.20;99.90;;;;;;5017621;28;20117;-78
2023/11/09 03:03:05;;;;;;;2.55;1.20;;;9.20;99.90;;;;;;4990512;28;20034;-78
2023/11/09 03:05:30;;;;;;;4.45;0.88;;;9.20;99.90;;;;;;4984989;28;20038;-80
2023/11/09 03:07:56;;;;;;;2.60;0.70;;;9.20;99.90;;;;;;4968854;28;20038;-79
2023/11/09 03:10:22;;;;;;;1.67;0.75;;;9.20;99.90;;;;;;4968251;28;20061;-77
2023/11/09 03:12:47;;;;;;;2.35;0.80;;;9.20;99.90;;;;;;4968719;28;20513;-78
2023/11/09 03:15:13;;;;;;;1.85;0.90;;;9.20;99.90;;;;;;4983920;28;20038;-79
2023/11/09 03:17:41;;;;;;;1.35;0.80;;;9.20;99.90;;;;;;4995830;28;20054;-79
2023/11/09 03:20:09;;;;;;;0.75;0.60;;;9.20;99.90;;;;;;4985861;28;20550;-78
2023/11/09 03:22:38;;;;;;;1.30;0.75;;;9.20;99.90;;;;;;4970602;28;20038;-78
2023/11/09 03:25:05;;;;;;;2.33;1.08;;;9.20;99.90;;;;;;4984694;28;20030;-78
2023/11/09 03:27:30;;;;;;;1.70;0.80;;;9.20;99.90;;;;;;4985959;28;20382;-78
2023/11/09 03:29:56;;;;;;;0.93;0.70;;;9.20;99.90;;;;;;5017099;28;20030;-79
2023/11/09 03:32:22;;;;;;;1.20;0.88;;;9.20;99.90;;;;;;4984415;28;20368;-78
2023/11/09 03:34:48;;;;;;;1.83;0.80;;;9.20;99.90;;;;;;4987936;28;20446;-78
2023/11/09 03:37:14;;;;;;;6.30;1.02;;;9.20;99.90;;;;;;4984519;28;20074;-78
2023/11/09 03:39:39;;;;;;;1.75;0.90;;;9.20;99.90;;;;;;4985961;28;20499;-78
2023/11/09 03:42:05;;;;;;;2.45;0.95;;;9.20;99.90;;;;;;4969975;28;20066;-78
2023/11/09 03:44:39;;;;;;;2.03;0.93;;;9.20;99.90;;;;;;4968443;28;20042;-78
2023/11/09 03:47:05;;;;;;;1.30;0.70;;;9.20;99.90;;;;;;5016828;28;20414;-79
2023/11/09 03:49:31;;;;;;;0.80;0.52;;;9.20;99.90;;;;;;4969302;28;20117;-78
2023/11/09 03:51:56;;;;;;;2.05;0.75;;;9.20;99.90;;;;;;4985838;28;20053;-79
2023/11/09 03:54:22;;;;;;;0.98;0.70;;;9.20;99.90;;;;;;4982696;28;20034;-79
2023/11/09 03:56:47;;;;;;;0.98;0.70;;;9.20;99.90;;;;;;4981695;28;20034;-79
2023/11/09 03:59:13;;;;;;;0.90;0.90;;;9.30;99.90;;;;;;4985146;28;20186;-79
2023/11/09 04:01:39;;;;;;;2.97;1.33;;;9.30;99.90;;;;;;4978595;28;20054;-78
2023/11/09 04:04:05;;;;;;;0.82;0.60;;;9.30;99.90;;;;;;5016800;28;20031;-78
2023/11/09 04:06:32;;;;;;;1.20;0.63;;;9.30;99.90;;;;;;4985088;28;20744;-78
2023/11/09 04:08:58;;;;;;;0.80;0.57;;;9.30;99.90;;;;;;4983781;28;20037;-78
2023/11/09 04:11:23;;;;;;;3.25;0.68;;;9.30;99.90;;;;;;4984225;28;20031;-78
2023/11/09 04:13:49;;;;;;;0.90;0.70;;;9.30;99.90;;;;;;4983026;28;20073;-79
2023/11/09 04:16:14;;;;;;;2.38;0.60;;;9.30;99.90;;;;;;4967240;28;20133;-79
2023/11/09 04:18:40;;;;;;;2.30;0.90;;;9.30;99.90;;;;;;4983570;28;20487;-80
2023/11/09 04:21:09;;;;;;;5.03;0.65;;;9.30;99.90;;;;;;4985158;28;20026;-78
2023/11/09 04:23:38;;;;;;;4.47;0.90;;;9.30;99.90;;;;;;4969226;28;20398;-79
2023/11/09 04:26:08;;;;;;;1.65;0.63;;;9.30;99.90;;;;;;4983413;28;20039;-79
2023/11/09 04:28:37;;;;;;;4.43;0.70;;;9.30;99.90;;;;;;4984727;28;20450;-78
2023/11/09 04:31:05;;;;;;;0.63;0.40;;;9.30;99.90;;;;;;4995740;28;20445;-79
2023/11/09 04:33:31;;;;;;;0.60;0.60;;;9.30;99.90;;;;;;4983173;28;20640;-78
2023/11/09 04:35:57;;;;;;;0.80;0.55;;;9.30;99.90;;;;;;4982623;28;20509;-80
2023/11/09 04:38:23;;;;;;;2.10;0.80;;;9.30;99.90;;;;;;4967365;28;20023;-79
2023/11/09 04:40:51;;;;;;;1.02;0.50;;;9.30;99.90;;;;;;4967362;28;20450;-79
2023/11/09 04:43:18;;;;;;;1.42;0.60;;;9.30;99.90;;;;;;4997352;28;20442;-78
2023/11/09 04:45:45;;;;;;;2.35;0.40;;;9.30;99.90;;;;;;4984010;28;20510;-79
2023/11/09 04:48:19;;;;;;;1.02;0.43;;;9.30;99.90;;;;;;4983145;28;20069;-79
2023/11/09 04:50:51;;;;;;;1.27;0.68;;;9.30;99.90;;;;;;4995179;28;20045;-80
2023/11/09 04:53:30;;;;;;;0.85;0.57;;;9.30;99.90;;;;;;4982190;28;20419;-79
2023/11/09 04:56:07;;;;;;;0.85;0.40;;;9.30;99.90;;;;;;4983704;28;20030;-80
2023/11/09 04:59:01;;;;;;;1.92;0.70;;;9.40;99.90;;;;;;4971538;28;20113;-79
2023/11/09 05:06:55;;;;;;;0.75;0.60;;;9.40;99.90;;;;;;4986618;28;20679;-80
2023/11/09 05:09:24;;;;;;;1.08;0.52;;;9.40;99.90;;;;;;4997277;28;20038;-79
2023/11/09 05:11:50;;;;;;;0.70;0.45;;;9.40;99.90;;;;;;4970289;28;20037;-78
2023/11/09 05:14:16;;;;;;;1.58;0.47;;;9.40;99.90;;;;;;4984607;28;20038;-80
2023/11/09 05:16:41;;;;;;;2.05;0.40;;;9.40;99.90;;;;;;4967337;28;20034;-80
2023/11/09 05:19:12;;;;;;;0.75;0.70;;;9.40;99.90;;;;;;4984722;28;20046;-79
2023/11/09 05:21:38;;;;;;;0.57;0.40;;;9.40;99.90;;;;;;4981211;28;20515;-79
2023/11/09 05:24:04;;;;;;;0.98;0.50;;;9.40;99.90;;;;;;4999032;28;20034;-80
2023/11/09 05:26:32;;;;;;;0.82;0.60;;;9.40;99.90;;;;;;4984618;28;20034;-80
2023/11/09 05:28:57;;;;;;;1.70;0.68;;;9.40;99.90;;;;;;4985860;28;20022;-80
2023/11/09 05:31:26;;;;;;;1.25;0.40;;;9.40;99.90;;;;;;4979999;28;20390;-78
2023/11/09 05:33:52;;;;;;;3.20;0.40;;;9.40;99.90;;;;;;4970292;28;20057;-79
2023/11/09 05:36:19;;;;;;;0.57;0.50;;;9.40;99.90;;;;;;4970763;28;20038;-79
2023/11/09 05:38:44;;;;;;;2.10;0.40;;;9.30;99.90;;;;;;4970477;28;20046;-79
2023/11/09 05:41:10;;;;;;;2.63;0.57;;;9.30;99.90;;;;;;4983752;28;20148;-79
2023/11/09 05:43:36;;;;;;;2.33;0.90;;;9.40;99.90;;;;;;4985689;28;20638;-79
2023/11/09 05:46:01;;;;;;;3.65;0.90;;;9.40;99.90;;;;;;4986824;28;20313;-78
2023/11/09 05:48:27;;;;;;;1.38;0.30;;;9.40;99.90;;;;;;4986083;28;20093;-78
2023/11/09 05:50:54;;;;;;;0.50;0.50;;;9.40;99.90;;;;;;4984132;28;20035;-79
2023/11/09 05:53:20;;;;;;;0.60;0.57;;;9.40;99.90;;;;;;4996885;28;20042;-79
2023/11/09 05:55:46;;;;;;;0.77;0.50;;;9.40;99.90;;;;;;4970178;28;20544;-78
2023/11/09 05:58:12;;;;;;;0.70;0.40;;;9.30;99.90;;;;;;4986669;28;20023;-78
2023/11/09 06:00:39;;;;;;;0.50;0.47;;;9.30;99.90;;;;;;4967554;28;20202;-79
2023/11/09 06:03:04;;;;;;;0.30;0.20;;;9.30;99.90;;;;;;4999098;28;20510;-78
2023/11/09 06:05:30;;;;;;;2.92;0.60;;;9.30;99.90;;;;;;4984183;28;20041;-77
2023/11/09 06:07:58;;;;;;;1.70;0.40;;;9.30;99.90;;;;;;4982149;28;20037;-78
2023/11/09 06:10:29;;;;;;;1.45;0.43;;;9.30;99.90;;;;;;4996087;28;20084;-78
2023/11/09 06:12:55;;;;;;;0.90;0.60;;;9.30;99.90;;;;;;4966548;28;20039;-79
2023/11/09 06:15:21;;;;;;;2.33;0.50;;;9.30;99.90;;;;;;5001362;28;20691;-78
2023/11/09 06:17:47;;;;;;;0.80;0.30;;;9.30;99.90;;;;;;4968876;28;20038;-78
2023/11/09 06:20:12;;;;;;;0.80;0.38;;;9.30;99.90;;;;;;4981629;28;20111;-79
2023/11/09 06:22:41;;;;;;;0.80;0.50;;;9.30;99.90;;;;;;4984603;28;20034;-78
2023/11/09 06:25:08;;;;;;;0.52;0.43;;;9.30;99.90;;;;;;4996328;28;20035;-79
2023/11/09 06:27:34;;;;;;;1.48;0.60;;;9.30;99.90;;;;;;4998080;28;20548;-78
2023/11/09 06:29:59;;;;;;;1.40;0.50;;;9.30;99.90;;;;;;4984138;28;20046;-78
2023/11/09 06:32:27;;;;;;;0.70;0.60;;;9.30;99.90;;;;;;4966162;28;20046;-79
2023/11/09 06:34:52;;;;;;;0.68;0.50;;;9.30;99.90;;;;;;4982402;28;20034;-79
2023/11/09 06:37:19;;;;;;;1.02;0.70;;;9.30;99.90;;;;;;4993955;28;20038;-79
2023/11/09 06:39:48;;;;;;;3.33;0.60;;;9.20;99.90;;;;;;4984133;28;20027;-78
2023/11/09 06:42:15;;;;;;;0.95;0.68;;;9.30;99.90;;;;;;4995307;28;20502;-78
2023/11/09 06:44:43;;;;;;;1.08;0.47;;;9.30;99.90;;;;;;4964828;28;20091;-78
2023/11/09 06:47:10;;;;;;;1.42;0.63;;;9.30;99.90;;;;;;4995160;28;20026;-78
2023/11/09 06:49:36;;;;;;;1.00;0.60;;;9.30;99.90;;;;;;4983562;28;20034;-78
2023/11/09 06:52:03;;;;;;;1.30;0.52;;;9.30;99.90;;;;;;4966603;28;20088;-77
2023/11/09 06:54:28;;;;;;;1.52;0.90;;;9.30;99.90;;;;;;4983318;28;20551;-78
2023/11/09 06:56:54;;;;;;;0.73;0.43;;;9.30;99.90;;;;;;5014026;28;20030;-78
2023/11/09 06:59:21;;;;;;;0.60;0.50;;;9.30;99.90;;;;;;4982204;28;20034;-78
2023/11/09 07:01:47;;;;;;;0.57;0.50;;;9.30;99.90;;;;;;4987571;28;20038;-79
2023/11/09 07:04:13;;;;;;;1.33;0.80;;;9.30;99.90;;;;;;4994628;28;20042;-78
2023/11/09 07:06:40;;;;;;;1.85;0.68;;;9.30;99.90;;;;;;4967701;28;20030;-78
2023/11/09 07:09:06;;;;;;;0.95;0.68;;;9.30;99.90;;;;;;5014061;28;20053;-79
2023/11/09 07:11:32;;;;;;;2.38;0.90;;;9.30;99.90;;;;;;4967029;28;20030;-77
2023/11/09 07:13:57;;;;;;;2.30;0.70;;;9.30;99.90;;;;;;4983804;28;20793;-78
2023/11/09 07:16:23;;;;;;;1.27;0.80;;;9.30;99.90;;;;;;4966608;28;20048;-78
2023/11/09 07:18:49;;;;;;;0.60;0.50;;;9.30;99.90;;;;;;5013946;28;20034;-79
2023/11/09 07:21:17;;;;;;;0.57;0.28;;;9.30;99.90;;;;;;4980892;28;20114;-78
2023/11/09 07:23:45;;;;;;;1.50;0.80;;;9.30;99.90;;;;;;4997164;28;20092;-78
2023/11/09 07:26:11;;;;;;;0.85;0.55;;;9.30;99.90;;;;;;4967169;28;20026;-80
2023/11/09 07:28:36;;;;;;;6.82;3.72;;;9.30;99.90;;;;;;4999687;28;20034;-78
2023/11/09 07:31:02;;;;;;;2.45;1.13;;;9.30;99.90;;;;;;4965436;28;20042;-79
2023/11/09 07:33:27;;;;;;;1.05;0.40;;;9.30;99.90;;;;;;4967245;28;20080;-78
2023/11/09 07:35:54;;;;;;;1.85;0.57;;;9.30;99.90;;;;;;4997043;28;20034;-78
2023/11/09 07:38:19;;;;;;;1.52;0.75;;;9.30;99.90;;;;;;4999972;28;20770;-78
2023/11/09 07:40:46;;;;;;;0.50;0.47;;;9.30;99.90;;;;;;4959765;28;20037;-78
2023/11/09 07:43:12;;;;;;;0.90;0.47;;;9.30;99.90;;;;;;4982898;28;20045;-79
2023/11/09 07:45:38;;;;;;;0.90;0.60;;;9.30;99.90;;;;;;4967273;28;20030;-78
2023/11/09 07:48:04;;;;;;;0.43;0.38;;;9.30;99.90;;;;;;4979947;28;20030;-78
2023/11/09 07:50:30;;;;;;;1.38;0.50;;;9.30;99.90;;;;;;4965977;28;20030;-78
2023/11/09 07:52:56;;;;;;;1.27;0.52;;;9.30;99.90;;;;;;4980560;28;20046;-77
2023/11/09 07:55:22;;;;;;;0.70;0.70;;;9.30;99.90;;;;;;4982824;28;20038;-78
2023/11/09 07:57:49;;;;;;;0.50;0.40;;;9.30;99.90;;;;;;4992361;28;20084;-77
2023/11/09 08:00:16;;;;;;;1.58;0.60;;;9.30;99.90;;;;;;4979554;28;20037;-78
2023/11/09 08:02:42;;;;;;;0.75;0.50;;;9.40;99.90;;;;;;4982763;28;20521;-78
2023/11/09 08:05:14;;;;;;;1.75;0.50;;;9.40;99.90;;;;;;4984539;28;20035;-78
2023/11/09 08:07:40;;;;;;;0.65;0.40;;;9.40;99.90;;;;;;4981174;28;20109;-77
2023/11/09 08:10:06;;;;;;;3.13;0.60;;;9.40;99.90;;;;;;4982367;28;20478;-77
2023/11/09 08:12:32;;;;;;;0.63;0.63;;;9.40;99.90;;;;;;4994982;28;20042;-78
2023/11/09 08:14:57;;;;;;;0.95;0.68;;;9.50;99.90;;;;;;4998709;28;20033;-78
2023/11/09 08:17:23;;;;;;;0.50;0.45;;;9.40;99.90;;;;;;4993401;28;20038;-78
2023/11/09 08:19:49;;;;;;;0.63;0.60;;;9.40;99.90;;;;;;5002724;28;20030;-78
2023/11/09 08:22:16;;;;;;;2.53;0.73;;;9.40;99.90;;;;;;4980777;28;20030;-78
2023/11/09 08:24:41;;;;;;;1.00;0.60;;;9.40;99.90;;;;;;4969337;28;20022;-78
2023/11/09 08:27:07;;;;;;;2.97;0.70;;;9.40;99.90;;;;;;4965668;28;20663;-77
2023/11/09 08:29:35;;;;;;;1.52;0.50;;;9.40;99.90;;;;;;4998146;28;20162;-78
2023/11/09 08:32:02;;;;;;;0.73;0.50;;;9.40;99.90;;;;;;4983312;28;20031;-78
2023/11/09 08:34:29;;;;;;;0.70;0.65;;;9.40;99.90;;;;;;4999880;28;20027;-78
2023/11/09 08:36:55;;;;;;;0.68;0.30;;;9.30;99.90;;;;;;4983986;28;20081;-77
2023/11/09 08:39:22;;;;;;;0.80;0.32;;;9.50;99.90;;;;;;4985415;28;20034;-77
2023/11/09 08:41:47;;;;;;;0.77;0.47;;;9.40;99.90;;;;;;4985715;28;20058;-79
2023/11/09 08:44:15;;;;;;;3.30;0.65;;;9.50;99.90;;;;;;4997718;28;20695;-79
2023/11/09 08:46:40;;;;;;;2.78;0.60;;;9.50;99.90;;;;;;4970819;28;20559;-78
2023/11/09 08:49:07;;;;;;;4.43;1.50;;;9.40;99.90;;;;;;5000542;28;20044;-77
2023/11/09 08:51:34;;;;;;;3.33;1.60;;;9.50;99.90;;;;;;4969116;28;20932;-78
2023/11/09 08:54:01;;;;;;;2.17;0.73;;;9.50;99.90;;;;;;4997176;28;20125;-78
2023/11/09 08:56:27;;;;;;;3.50;0.88;;;9.50;99.90;;;;;;4987345;28;20073;-78
2023/11/09 08:58:53;;;;;;;1.13;0.77;;;9.50;99.90;;;;;;4989806;28;20050;-79
2023/11/09 09:01:18;;;;;;;2.72;0.80;;;9.60;99.90;;;;;;4986120;28;20030;-77
2023/11/09 09:03:45;;;;;;;1.33;0.52;;;9.50;99.90;;;;;;4969501;28;20615;-77
2023/11/09 09:06:11;;;;;;;6.22;1.05;;;9.60;99.90;;;;;;4987725;28;20046;-78
2023/11/09 09:08:38;;;;;;;1.85;0.90;;;9.60;99.90;;;;;;4985842;28;20286;-77
2023/11/09 09:11:05;;;;;;;3.42;1.15;;;9.70;99.90;;;;;;4975591;28;20294;-78
2023/11/09 09:13:31;;;;;;;1.10;1.00;;;9.70;99.90;;;;;;4993279;28;20521;-78
2023/11/09 09:15:56;;;;;;;5.72;1.40;;;9.60;99.90;;;;;;5001585;28;20046;-78
2023/11/09 09:18:23;;;;;;;3.92;1.17;;;9.60;99.90;;;;;;4998649;28;20680;-78
2023/11/09 09:20:49;;;;;;;1.55;1.00;;;9.60;99.90;;;;;;4983595;28;20030;-78
2023/11/09 09:23:16;;;;;;;2.58;1.20;;;9.60;99.90;;;;;;4964540;28;20044;-78
2023/11/09 09:25:42;;;;;;;2.55;1.15;;;9.60;99.90;;;;;;4997523;28;20030;-78
2023/11/09 09:28:09;;;;;;;2.20;1.67;;;9.70;99.90;;;;;;4999600;28;20137;-79
2023/11/09 09:30:35;;;;;;;3.45;1.23;;;9.70;99.90;;;;;;4985600;28;20129;-78
2023/11/09 09:33:01;;;;;;;4.30;1.35;;;9.70;99.90;;;;;;4997725;28;20702;-79
2023/11/09 09:35:28;;;;;;;2.80;0.85;;;9.80;99.90;;;;;;5000595;28;20035;-78
2023/11/09 09:37:54;;;;;;;4.68;0.68;;;9.80;99.90;;;;;;4969426;28;20113;-79
2023/11/09 09:40:23;;;;;;;6.70;1.77;;;9.80;99.90;;;;;;4969108;28;20562;-78
2023/11/09 09:42:52;;;;;;;3.95;1.30;;;9.80;99.90;;;;;;4969893;28;20039;-79
2023/11/09 09:45:22;;;;;;;5.97;0.95;;;9.90;99.90;;;;;;4999889;28;20117;-79
2023/11/09 09:47:50;;;;;;;5.75;1.15;;;9.90;99.90;;;;;;4969719;28;20030;-79
2023/11/09 09:50:24;;;;;;;7.50;2.03;;;9.90;99.90;;;;;;4999679;28;20034;-81
2023/11/09 09:52:55;;;;;;;9.65;1.25;;;10.00;99.90;;;;;;4994767;28;20521;-79
2023/11/09 09:55:24;;;;;;;1.75;0.98;;;10.10;99.90;;;;;;4996998;28;20077;-80
2023/11/09 09:57:51;;;;;;;8.98;1.75;;;10.10;99.90;;;;;;4967347;28;20064;-80
2023/11/09 10:00:23;;;;;;;3.58;1.42;;;10.20;99.90;;;;;;4969404;28;20109;-78
2023/11/09 10:03:02;;;;;;;7.45;1.30;;;10.30;99.90;;;;;;5004145;28;20042;-79
2023/11/09 10:05:33;;;;;;;5.05;1.58;;;10.30;99.90;;;;;;4968943;28;20031;-79
2023/11/09 10:08:13;;;;;;;5.47;1.40;;;10.40;99.90;;;;;;4968687;28;20030;-78
2023/11/09 10:10:44;;;;;;;5.38;1.35;;;10.40;99.90;;;;;;4985564;28;20598;-79
2023/11/09 10:13:10;;;;;;;9.45;2.00;;;10.40;99.90;;;;;;4983903;28;20494;-78
2023/11/09 10:15:36;;;;;;;2.35;1.23;;;10.50;99.90;;;;;;4984749;28;20034;-79
2023/11/09 10:18:02;;;;;;;4.32;1.25;;;10.50;99.90;;;;;;4970026;28;20034;-79
2023/11/09 10:20:28;;;;;;;4.05;1.17;;;10.60;99.90;;;;;;4967001;28;20041;-80
2023/11/09 10:22:53;;;;;;;7.03;1.77;;;10.60;99.90;;;;;;4984913;28;20030;-80
2023/11/09 10:25:19;;;;;;;7.90;1.77;;;10.70;99.90;;;;;;4996456;28;20031;-79
2023/11/09 10:27:47;;;;;;;5.45;1.30;;;10.70;99.90;;;;;;4997035;28;20045;-79
2023/11/09 10:30:15;;;;;;;1.00;0.70;;;10.80;99.90;;;;;;4983743;28;20162;-79
2023/11/09 10:32:40;;;;;;;6.20;1.63;;;10.80;99.90;;;;;;5000072;28;20053;-79
2023/11/09 10:35:07;;;;;;;8.07;2.50;;;10.80;99.90;;;;;;4984731;28;20117;-79
2023/11/09 10:37:34;;;;;;;7.40;1.55;;;10.90;99.90;;;;;;4982224;28;20042;-80
2023/11/09 10:40:04;;;;;;;5.25;1.70;;;11.00;99.90;;;;;;4986716;28;20027;-80
2023/11/09 10:42:30;;;;;;;7.57;1.60;;;10.90;99.90;;;;;;4969495;28;20027;-79
2023/11/09 10:45:01;;;;;;;6.05;1.40;;;11.10;99.90;;;;;;4992372;28;20402;-80
2023/11/09 10:47:27;;;;;;;7.00;1.98;;;11.10;99.90;;;;;;4983095;28;20034;-79
2023/11/09 10:49:53;;;;;;;6.72;1.92;;;11.20;99.90;;;;;;4985551;28;20390;-79
2023/11/09 10:52:21;;;;;;;5.45;1.45;;;11.40;99.90;;;;;;4982536;28;20043;-79
2023/11/09 10:54:48;;;;;;;11.75;2.25;;;11.40;99.90;;;;;;4998553;28;20041;-80
2023/11/09 10:57:15;;;;;;;5.22;1.25;;;11.50;99.90;;;;;;5001745;28;20041;-79
2023/11/09 10:59:40;;;;;;;3.15;1.40;;;11.40;99.90;;;;;;4984847;28;20030;-79
2023/11/09 11:02:27;;;;;;;4.07;1.52;;;11.40;99.90;;;;;;4997710;28;20026;-80
2023/11/09 11:04:55;;;;;;;;;;;11.50;99.90;;;;;;4994679;28;20026;-80
2023/11/09 11:07:21;;;;;;;6.05;1.60;;;11.60;99.90;;;;;;4968776;28;19924;-79
2023/11/09 11:09:47;;;;;;;4.70;1.55;;;11.70;99.90;;;;;;4982997;28;20034;-80
2023/11/09 11:12:13;;;;;;;9.68;2.25;;;11.70;99.90;;;;;;4985019;28;20126;-80
2023/11/09 11:14:42;;;;;;;7.75;1.85;;;11.90;99.90;;;;;;4982501;28;20027;-79
2023/11/09 11:17:32;;;;;;;5.43;1.23;;;11.80;99.90;;;;;;4984024;28;20087;-79
2023/11/09 11:20:17;;;;;;;6.32;2.35;;;11.80;99.90;;;;;;4965884;28;20030;-78
2023/11/09 11:23:08;;;;;;;3.83;1.10;;;11.80;99.90;;;;;;4984020;28;20387;-78
2023/11/09 11:26:10;;;;;;;10.40;1.58;;;12.00;99.90;;;;;;5012590;28;20480;-79
2023/11/09 11:28:38;;;;;;;11.98;2.67;;;11.80;99.90;;;;;;4940635;28;20062;-79
2023/11/09 11:31:04;;;;;;;6.30;1.63;;;11.80;99.90;;;;;;4984476;28;20034;-79
2023/11/09 11:33:30;;;;;;;10.02;1.88;;;11.90;99.90;;;;;;4983326;28;20041;-78
2023/11/09 11:35:58;;;;;;;3.97;1.20;;;11.90;99.90;;;;;;4983981;28;20596;-78
2023/11/09 11:38:29;;;;;;;7.10;1.65;;;12.00;99.90;;;;;;4992920;28;20510;-79
2023/11/09 11:41:00;;;;;;;4.93;1.75;;;11.90;99.90;;;;;;4983912;28;20057;-78
2023/11/09 11:43:36;;;;;;;7.32;1.58;;;11.80;99.90;;;;;;4995304;28;20704;-78
2023/11/09 11:46:11;;;;;;;10.32;2.17;;;11.80;99.90;;;;;;4995517;28;20097;-79
2023/11/09 11:48:39;;;;;;;6.63;1.38;;;11.80;99.90;;;;;;4983297;28;20037;-78
2023/11/09 11:51:06;;;;;;;7.18;2.42;;;11.90;99.90;;;;;;4976325;28;20029;-79
2023/11/09 11:53:33;;;;;;;6.68;1.85;;;12.10;99.90;;;;;;4969923;28;20038;-78
2023/11/09 11:55:59;;;;;;;2.28;0.57;;;12.00;99.90;;;;;;4968268;28;20034;-78
2023/11/09 11:58:39;;;;;;;7.00;2.25;;;11.80;99.90;;;;;;4998374;28;20376;-80
2023/11/09 12:01:05;;;;;;;6.05;1.42;;;11.80;99.90;;;;;;4992111;28;20032;-78
2023/11/09 12:03:31;;;;;;;10.20;1.75;;;11.70;99.90;;;;;;4989882;28;20112;-77
2023/11/09 12:06:02;;;;;;;10.82;2.13;;;11.80;99.90;;;;;;4972900;28;20037;-78
2023/11/09 12:08:28;;;;;;;9.30;1.60;;;11.80;99.90;;;;;;4988271;28;20479;-78
2023/11/09 12:10:54;;;;;;;15.00;2.92;;;11.70;99.90;;;;;;4987603;28;20257;-78
2023/11/09 12:13:21;;;;;;;10.20;1.90;;;12.00;99.90;;;;;;5000933;28;20049;-78
2023/11/09 12:15:47;;;;;;;6.38;1.23;;;12.10;99.90;;;;;;4986433;28;20027;-78
2023/11/09 12:18:12;;;;;;;4.68;1.35;;;12.10;99.90;;;;;;5002238;28;20096;-79
2023/11/09 12:20:38;;;;;;;7.05;2.28;;;12.10;99.90;;;;;;4986053;28;20049;-79
2023/11/09 12:23:05;;;;;;;10.77;1.90;;;11.90;99.90;;;;;;4970358;28;20057;-78
2023/11/09 12:25:53;;;;;;;10.55;2.08;;;12.10;99.90;;;;;;4971201;28;20034;-79
2023/11/09 12:28:19;;;;;;;8.80;1.63;;;12.10;99.90;;;;;;4955845;28;20034;-78
2023/11/09 12:30:48;;;;;;;7.53;1.83;;;12.10;99.90;;;;;;4986148;28;20636;-79
2023/11/09 12:33:14;;;;;;;4.57;1.85;;;12.00;99.90;;;;;;4986704;28;20042;-78
2023/11/09 12:35:59;;;;;;;5.90;1.08;;;12.00;99.90;;;;;;4998465;28;20089;-78
2023/11/09 12:38:25;;;;;;;7.75;2.03;;;12.00;99.90;;;;;;5013932;28;20038;-79
2023/11/09 12:40:52;;;;;;;7.30;1.80;;;12.20;99.90;;;;;;4988877;28;20509;-77
2023/11/09 12:43:18;;;;;;;4.82;1.30;;;12.10;99.90;;;;;;5001059;28;20042;-80
2023/11/09 12:46:00;;;;;;;6.65;1.67;;;12.10;99.90;;;;;;4971524;28;20402;-77
2023/11/09 12:48:27;;;;;;;11.90;1.80;;;12.20;99.90;;;;;;4953845;28;20041;-79
2023/11/09 12:50:56;;;;;;;9.23;1.88;;;12.30;99.90;;;;;;4986508;28;20034;-77
2023/11/09 12:53:27;;;;;;;5.88;1.52;;;12.40;99.90;;;;;;4985528;28;20145;-78
2023/11/09 12:55:52;;;;;;;11.55;3.10;;;12.30;99.90;;;;;;4998850;28;20034;-78
2023/11/09 12:58:21;;;;;;;11.07;1.83;;;12.20;99.90;;;;;;4998308;28;20105;-78
2023/11/09 13:00:47;;;;;;;5.63;1.42;;;12.10;99.90;;;;;;4970625;28;20486;-79